createdAt,value
2022-09-30T00:04:53.302Z,7.61
2022-09-30T00:09:54.095Z,7.69
2022-09-30T00:14:56.579Z,7.76
2022-09-30T00:19:57.305Z,7.74
2022-09-30T00:24:58.106Z,7.75
2022-09-30T00:30:00.219Z,7.68
2022-09-30T00:35:00.969Z,7.67
2022-09-30T00:40:01.839Z,7.70
2022-09-30T00:45:08.148Z,7.67
2022-09-30T00:50:20.137Z,7.69
2022-09-30T00:55:50.879Z,7.70
2022-09-30T01:00:53.192Z,7.69
2022-09-30T01:05:54.706Z,7.67
2022-09-30T01:10:55.795Z,7.58
2022-09-30T01:16:17.857Z,7.67
2022-09-30T01:21:46.708Z,7.61
2022-09-30T01:27:06.096Z,7.59
2022-09-30T01:32:19.081Z,7.57
2022-09-30T01:37:29.247Z,7.62
2022-09-30T01:42:40.428Z,7.59
2022-09-30T01:47:47.164Z,7.58
2022-09-30T01:52:57.249Z,7.55
2022-09-30T01:58:01.889Z,7.56
2022-09-30T02:03:10.837Z,7.39
2022-09-30T02:08:30.167Z,7.32
2022-09-30T02:13:37.350Z,7.45
2022-09-30T02:18:42.707Z,7.44
2022-09-30T02:23:46.855Z,7.42
2022-09-30T02:28:52.873Z,7.41
2022-09-30T02:33:59.551Z,7.38
2022-09-30T02:39:04.234Z,7.42
2022-09-30T02:44:05.691Z,7.41
2022-09-30T02:49:12.626Z,7.42
2022-09-30T02:54:20.657Z,7.40
2022-09-30T02:59:22.874Z,7.37
2022-09-30T03:04:28.175Z,7.34
2022-09-30T03:09:29.340Z,7.37
2022-09-30T03:14:43.271Z,7.36
2022-09-30T03:20:08.753Z,7.28
2022-09-30T03:25:28.512Z,7.26
2022-09-30T03:30:33.054Z,7.27
2022-09-30T03:35:43.766Z,7.24
2022-09-30T03:40:54.403Z,7.23
2022-09-30T03:46:02.490Z,7.23
2022-09-30T03:51:06.617Z,7.30
2022-09-30T03:56:07.855Z,7.31
2022-09-30T04:01:09.209Z,7.29
2022-09-30T04:06:14.562Z,7.30
2022-09-30T04:11:16.218Z,7.31
2022-09-30T04:16:16.983Z,7.73
2022-09-30T04:21:19.128Z,7.62
2022-09-30T04:26:20.574Z,7.52
2022-09-30T04:31:21.605Z,7.33
2022-09-30T04:36:24.004Z,7.12
2022-09-30T04:41:25.063Z,7.01
2022-09-30T04:46:25.903Z,6.96
2022-09-30T04:51:28.274Z,6.84
2022-09-30T04:56:29.072Z,6.76
2022-09-30T05:01:29.845Z,6.66
2022-09-30T05:06:31.944Z,6.57
2022-09-30T05:11:32.732Z,6.52
2022-09-30T05:16:33.562Z,6.42
2022-09-30T05:21:35.845Z,6.46
2022-09-30T05:26:36.662Z,6.41
2022-09-30T05:31:37.582Z,6.40
2022-09-30T05:36:40.015Z,6.37
2022-09-30T05:41:40.807Z,6.48
2022-09-30T05:46:41.589Z,6.57
2022-09-30T05:51:44.315Z,6.67
2022-09-30T05:56:45.093Z,6.83
2022-09-30T06:01:45.923Z,6.99
2022-09-30T06:06:48.696Z,7.14
2022-09-30T06:11:49.453Z,7.26
2022-09-30T06:16:50.638Z,7.34
2022-09-30T06:21:52.928Z,7.42
2022-09-30T06:26:54.332Z,7.54
2022-09-30T06:31:55.255Z,7.60
2022-09-30T06:36:57.482Z,7.77
2022-09-30T06:41:58.346Z,7.90
2022-09-30T06:46:59.810Z,8.13
2022-09-30T06:52:02.431Z,8.35
2022-09-30T06:57:03.210Z,8.49
2022-09-30T07:02:04.089Z,8.64
2022-09-30T07:07:06.918Z,8.88
2022-09-30T07:12:07.709Z,9.37
2022-09-30T07:17:08.460Z,9.60
2022-09-30T07:22:30.162Z,9.68
2022-09-30T07:27:33.536Z,9.84
2022-09-30T07:32:34.337Z,9.98
2022-09-30T07:37:37.035Z,9.93
2022-09-30T07:42:38.953Z,9.98
2022-09-30T07:47:39.778Z,9.93
2022-09-30T07:52:41.870Z,9.93
2022-09-30T07:57:42.655Z,10.07
2022-09-30T08:02:43.417Z,10.26
2022-09-30T08:07:45.534Z,10.41
2022-09-30T08:12:46.270Z,10.69
2022-09-30T08:17:47.004Z,11.08
2022-09-30T08:22:49.635Z,11.40
2022-09-30T08:27:50.771Z,11.65
2022-09-30T08:32:51.579Z,11.63
2022-09-30T08:37:54.737Z,11.63
2022-09-30T08:43:13.773Z,11.87
2022-09-30T08:48:31.050Z,11.91
2022-09-30T08:53:37.662Z,12.09
2022-09-30T08:58:42.124Z,12.09
2022-09-30T09:03:43.121Z,12.00
2022-09-30T09:08:59.547Z,11.74
2022-09-30T09:14:04.013Z,11.69
2022-09-30T09:19:10.771Z,11.80
2022-09-30T09:24:17.328Z,12.07
2022-09-30T09:29:35.486Z,12.18
2022-09-30T09:34:39.642Z,12.06
2022-09-30T09:40:09.759Z,12.06
2022-09-30T09:45:17.883Z,12.19
2022-09-30T09:50:25.219Z,12.35
2022-09-30T09:55:27.653Z,12.60
2022-09-30T10:00:46.291Z,12.78
2022-09-30T10:05:59.729Z,13.01
2022-09-30T10:11:04.288Z,13.17
2022-09-30T10:16:06.235Z,13.15
2022-09-30T10:21:20.332Z,13.27
2022-09-30T10:26:24.717Z,13.44
2022-09-30T10:31:28.341Z,13.59
2022-09-30T10:36:33.401Z,13.68
2022-09-30T10:41:38.095Z,13.85
2022-09-30T10:46:41.370Z,14.07
2022-09-30T10:51:47.133Z,14.23
2022-09-30T10:56:54.565Z,14.37
2022-09-30T11:02:05.235Z,14.49
2022-09-30T11:07:17.922Z,14.62
2022-09-30T11:12:26.983Z,14.71
2022-09-30T11:17:33.853Z,14.92
2022-09-30T11:22:47.887Z,14.97
2022-09-30T11:28:09.652Z,14.89
2022-09-30T11:33:36.242Z,15.08
2022-09-30T11:39:05.370Z,15.30
2022-09-30T11:44:23.032Z,15.36
2022-09-30T11:49:39.408Z,15.18
2022-09-30T11:55:00.972Z,15.22
2022-09-30T12:00:08.244Z,15.31
2022-09-30T12:05:20.690Z,15.64
2022-09-30T12:10:25.740Z,15.93
2022-09-30T12:15:28.710Z,16.06
2022-09-30T12:20:33.480Z,16.16
2022-09-30T12:25:41.698Z,16.38
2022-09-30T12:30:44.453Z,16.67
2022-09-30T12:36:20.462Z,16.46
2022-09-30T12:41:35.325Z,16.41
2022-09-30T12:47:03.891Z,16.82
2022-09-30T12:52:07.656Z,16.78
2022-09-30T12:57:10.231Z,16.68
2022-09-30T13:02:31.831Z,17.30
2022-09-30T13:07:34.466Z,17.21
2022-09-30T13:12:46.753Z,17.04
2022-09-30T13:17:51.562Z,17.18
2022-09-30T13:22:59.979Z,17.38
2022-09-30T13:28:29.879Z,17.21
2022-09-30T13:33:47.204Z,17.35
2022-09-30T13:39:09.697Z,17.20
2022-09-30T13:44:17.771Z,17.25
2022-09-30T13:49:23.697Z,16.88
2022-09-30T13:54:30.126Z,17.08
2022-09-30T14:00:01.788Z,17.15
2022-09-30T14:05:36.381Z,17.15
2022-09-30T14:10:54.346Z,17.15
2022-09-30T14:16:36.934Z,17.18
2022-09-30T14:21:43.033Z,17.05
2022-09-30T14:27:01.985Z,17.15
2022-09-30T14:32:12.678Z,17.04
2022-09-30T14:37:22.755Z,16.98
2022-09-30T14:42:29.617Z,16.69
2022-09-30T14:47:32.044Z,16.63
2022-09-30T14:52:37.988Z,16.58
2022-09-30T14:57:38.905Z,16.42
2022-09-30T15:02:46.808Z,16.40
2022-09-30T15:07:49.338Z,16.42
2022-09-30T15:12:51.666Z,16.32
2022-09-30T15:17:55.446Z,16.15
2022-09-30T15:22:59.897Z,15.95
2022-09-30T15:28:00.809Z,15.80
2022-09-30T15:33:03.392Z,15.71
2022-09-30T15:38:10.942Z,15.69
2022-09-30T15:43:15.684Z,15.72
2022-09-30T15:48:36.070Z,15.62
2022-09-30T15:53:50.007Z,15.36
2022-09-30T15:58:56.510Z,15.14
2022-09-30T16:03:59.410Z,14.91
2022-09-30T16:09:06.500Z,14.80
2022-09-30T16:14:11.292Z,14.91
2022-09-30T16:19:18.392Z,14.94
2022-09-30T16:24:47.290Z,14.85
2022-09-30T16:29:48.107Z,14.71
2022-09-30T16:34:48.973Z,14.49
2022-09-30T16:39:51.496Z,14.15
2022-09-30T16:44:52.284Z,13.72
2022-09-30T16:49:53.252Z,13.35
2022-09-30T16:54:55.410Z,13.11
2022-09-30T16:59:56.274Z,12.82
2022-09-30T17:04:57.068Z,12.58
2022-09-30T17:09:59.679Z,12.39
2022-09-30T17:15:00.425Z,12.22
2022-09-30T17:20:01.277Z,12.30
2022-09-30T17:25:03.521Z,12.24
2022-09-30T17:30:05.020Z,12.07
2022-09-30T17:35:08.405Z,11.92
2022-09-30T17:40:25.164Z,11.80
2022-09-30T17:45:27.966Z,11.63
2022-09-30T17:50:29.015Z,11.49
2022-09-30T17:55:31.307Z,11.52
2022-09-30T18:00:32.602Z,11.47
2022-09-30T18:05:34.121Z,11.38
2022-09-30T18:10:38.660Z,11.39
2022-09-30T18:15:40.644Z,11.43
2022-09-30T18:20:44.913Z,11.44
2022-09-30T18:25:49.623Z,11.49
2022-09-30T18:30:50.435Z,11.47
2022-09-30T18:35:51.745Z,11.38
2022-09-30T18:40:54.545Z,11.38
2022-09-30T18:45:56.847Z,11.38
2022-09-30T18:51:03.337Z,11.23
2022-09-30T18:56:06.113Z,11.08
2022-09-30T19:01:07.780Z,10.84
2022-09-30T19:06:09.414Z,10.72
2022-09-30T19:11:14.744Z,10.67
2022-09-30T19:16:18.367Z,10.45
2022-09-30T19:21:22.169Z,10.38
2022-09-30T19:26:27.097Z,10.32
2022-09-30T19:31:28.479Z,10.12
2022-09-30T19:36:41.348Z,10.02
2022-09-30T19:41:49.986Z,10.01
2022-09-30T19:46:51.210Z,9.91
2022-09-30T19:51:53.255Z,9.92
2022-09-30T19:56:55.336Z,9.88
2022-09-30T20:01:56.190Z,9.77
2022-09-30T20:06:57.020Z,9.69
2022-09-30T20:11:59.212Z,9.60
2022-09-30T20:17:00.022Z,9.57
2022-09-30T20:22:00.911Z,9.57
2022-09-30T20:27:03.011Z,9.43
2022-09-30T20:32:04.003Z,9.36
2022-09-30T20:37:04.799Z,9.13
2022-09-30T20:42:07.496Z,9.26
2022-09-30T20:47:08.206Z,9.14
2022-09-30T20:52:08.947Z,9.10
2022-09-30T20:57:11.013Z,9.01
2022-09-30T21:02:14.099Z,8.92
2022-09-30T21:07:14.980Z,8.90
2022-09-30T21:12:17.243Z,8.81
2022-09-30T21:17:17.991Z,8.83
2022-09-30T21:22:18.767Z,8.74
2022-09-30T21:27:20.857Z,8.70
2022-09-30T21:32:21.634Z,8.52
2022-09-30T21:37:22.406Z,8.54
2022-09-30T21:42:24.515Z,8.47
2022-09-30T21:47:25.410Z,8.36
2022-09-30T21:52:28.604Z,8.29
2022-09-30T21:57:34.135Z,8.24
2022-09-30T22:02:36.291Z,8.21
2022-09-30T22:07:38.042Z,8.24
2022-09-30T22:12:40.332Z,8.09
2022-09-30T22:17:41.152Z,8.02
2022-09-30T22:22:41.877Z,8.01
2022-09-30T22:27:44.173Z,7.91
2022-09-30T22:32:44.965Z,7.87
2022-09-30T22:38:09.496Z,7.81
2022-09-30T22:43:11.564Z,7.78
2022-09-30T22:48:21.286Z,7.63
2022-09-30T22:53:22.025Z,7.60
2022-09-30T22:58:25.280Z,7.58
2022-09-30T23:03:26.952Z,7.53
2022-09-30T23:08:31.996Z,7.50
2022-09-30T23:13:34.897Z,7.45
2022-09-30T23:18:36.001Z,7.40
2022-09-30T23:23:38.125Z,7.30
2022-09-30T23:28:40.819Z,7.26
2022-09-30T23:33:47.101Z,7.18
2022-09-30T23:38:48.178Z,7.14
2022-09-30T23:43:50.280Z,7.04
2022-09-30T23:48:51.159Z,7.00
2022-09-30T23:53:51.896Z,7.00
2022-09-30T23:58:53.984Z,6.97
